createdAt,value
2023-01-06T00:01:09.240Z,3.92
2023-01-06T00:03:37.240Z,4.45
2023-01-06T00:06:09.884Z,4.45
2023-01-06T00:08:42.564Z,5.25
2023-01-06T00:11:12.146Z,4.90
2023-01-06T00:13:40.664Z,4.72
2023-01-06T00:16:14.565Z,5.20
2023-01-06T00:18:43.169Z,5.07
2023-01-06T00:21:12.627Z,5.85
2023-01-06T00:23:40.837Z,5.45
2023-01-06T00:26:10.592Z,6.40
2023-01-06T00:28:38.664Z,6.60
2023-01-06T00:31:09.472Z,6.28
2023-01-06T00:33:37.674Z,6.28
2023-01-06T00:36:07.113Z,6.07
2023-01-06T00:38:38.887Z,6.40
2023-01-06T00:41:27.914Z,5.72
2023-01-06T00:43:56.061Z,5.55
2023-01-06T00:46:28.875Z,6.85
2023-01-06T00:49:06.840Z,5.68
2023-01-06T00:51:36.434Z,6.85
2023-01-06T00:54:04.975Z,5.82
2023-01-06T00:56:33.159Z,7.32
2023-01-06T00:59:03.599Z,5.85
2023-01-06T01:01:33.437Z,6.93
2023-01-06T01:04:01.435Z,6.45
2023-01-06T01:06:30.018Z,6.50
2023-01-06T01:08:59.985Z,6.13
2023-01-06T01:11:46.032Z,5.93
2023-01-06T01:14:15.660Z,6.15
2023-01-06T01:16:47.910Z,6.45
2023-01-06T01:19:16.731Z,6.50
2023-01-06T01:21:44.823Z,7.03
2023-01-06T01:24:13.196Z,5.75
2023-01-06T01:26:41.095Z,6.05
2023-01-06T01:29:11.203Z,6.43
2023-01-06T01:31:39.152Z,6.28
2023-01-06T01:34:08.554Z,6.40
2023-01-06T01:36:36.572Z,7.10
2023-01-06T01:39:04.816Z,6.13
2023-01-06T01:41:32.908Z,6.75
2023-01-06T01:44:24.254Z,6.78
2023-01-06T01:46:52.319Z,6.95
2023-01-06T01:49:28.612Z,6.28
2023-01-06T01:51:58.872Z,6.90
2023-01-06T01:54:30.480Z,6.13
2023-01-06T01:57:01.246Z,6.27
2023-01-06T01:59:32.291Z,6.32
2023-01-06T02:02:00.589Z,7.53
2023-01-06T02:04:30.794Z,6.80
2023-01-06T02:06:59.243Z,6.13
2023-01-06T02:09:32.805Z,7.18
2023-01-06T02:12:00.743Z,7.18
2023-01-06T02:14:31.390Z,7.25
2023-01-06T02:17:14.326Z,7.50
2023-01-06T02:20:04.824Z,7.38
2023-01-06T02:22:54.580Z,6.32
2023-01-06T02:25:50.016Z,6.88
2023-01-06T02:28:46.000Z,7.18
2023-01-06T02:31:41.230Z,7.53
2023-01-06T02:34:16.979Z,6.95
2023-01-06T02:36:51.523Z,6.00
2023-01-06T02:39:37.040Z,6.82
2023-01-06T02:42:15.767Z,6.00
2023-01-06T02:44:50.195Z,6.25
2023-01-06T02:47:23.778Z,5.82
2023-01-06T02:49:59.988Z,5.80
2023-01-06T02:52:37.909Z,6.40
2023-01-06T02:55:09.941Z,6.93
2023-01-06T02:57:42.689Z,6.63
2023-01-06T03:00:14.968Z,6.15
2023-01-06T03:02:50.404Z,6.30
2023-01-06T03:05:18.927Z,6.03
2023-01-06T03:07:48.534Z,6.97
2023-01-06T03:10:20.886Z,6.63
2023-01-06T03:12:54.906Z,6.50
2023-01-06T03:15:24.396Z,6.22
2023-01-06T03:17:53.976Z,6.30
2023-01-06T03:20:22.249Z,5.97
2023-01-06T03:22:50.469Z,8.05
2023-01-06T03:25:19.196Z,6.50
2023-01-06T03:27:47.056Z,5.85
2023-01-06T03:30:16.140Z,7.68
2023-01-06T03:32:52.498Z,5.82
2023-01-06T03:35:42.704Z,7.35
2023-01-06T03:38:17.123Z,4.50
2023-01-06T03:40:54.128Z,5.93
2023-01-06T03:43:28.037Z,6.50
2023-01-06T03:46:02.558Z,6.50
2023-01-06T03:48:40.631Z,6.65
2023-01-06T03:51:20.434Z,6.05
2023-01-06T03:53:54.473Z,5.95
2023-01-06T03:56:26.597Z,6.63
2023-01-06T03:58:58.878Z,6.30
2023-01-06T04:01:28.290Z,7.00
2023-01-06T04:03:57.329Z,6.75
2023-01-06T04:06:26.785Z,6.38
2023-01-06T04:08:54.818Z,6.55
2023-01-06T04:11:40.360Z,6.25
2023-01-06T04:14:08.466Z,6.22
2023-01-06T04:16:36.695Z,7.43
2023-01-06T04:19:05.319Z,6.60
2023-01-06T04:21:34.803Z,7.38
2023-01-06T04:24:03.201Z,6.13
2023-01-06T04:26:31.257Z,6.50
2023-01-06T04:28:59.373Z,5.93
2023-01-06T04:31:27.513Z,6.90
2023-01-06T04:33:55.565Z,7.32
2023-01-06T04:36:23.614Z,6.55
2023-01-06T04:38:53.190Z,7.03
2023-01-06T04:41:21.528Z,7.47
2023-01-06T04:43:50.289Z,6.68
2023-01-06T04:46:18.419Z,6.85
2023-01-06T04:48:46.692Z,5.63
2023-01-06T04:51:14.843Z,6.15
2023-01-06T04:53:43.957Z,5.82
2023-01-06T04:56:16.719Z,5.50
2023-01-06T04:58:44.630Z,5.82
2023-01-06T05:01:14.081Z,6.38
2023-01-06T05:03:42.441Z,7.43
2023-01-06T05:06:12.747Z,7.43
2023-01-06T05:08:44.957Z,6.88
2023-01-06T05:11:16.519Z,7.18
2023-01-06T05:13:44.552Z,6.50
2023-01-06T05:16:16.808Z,7.68
2023-01-06T05:18:44.881Z,6.75
2023-01-06T05:21:13.070Z,6.65
2023-01-06T05:23:41.404Z,6.82
2023-01-06T05:26:11.202Z,6.90
2023-01-06T05:28:40.404Z,6.18
2023-01-06T05:31:08.267Z,6.20
2023-01-06T05:33:36.286Z,7.13
2023-01-06T05:36:06.812Z,4.72
2023-01-06T05:38:34.904Z,6.45
2023-01-06T05:41:03.475Z,5.55
2023-01-06T05:43:34.048Z,5.50
2023-01-06T05:46:07.007Z,5.90
2023-01-06T05:48:35.681Z,5.65
2023-01-06T05:51:04.388Z,5.38
2023-01-06T05:53:33.527Z,5.47
2023-01-06T05:56:02.844Z,4.80
2023-01-06T05:58:33.359Z,4.45
2023-01-06T06:01:03.376Z,3.90
2023-01-06T06:03:31.772Z,4.40
2023-01-06T06:06:04.824Z,3.72
2023-01-06T06:08:33.156Z,3.67
2023-01-06T06:11:04.184Z,3.97
2023-01-06T06:13:32.391Z,4.13
2023-01-06T06:16:10.700Z,4.13
2023-01-06T06:18:42.959Z,3.35
2023-01-06T06:21:24.018Z,3.63
2023-01-06T06:23:54.203Z,3.60
2023-01-06T06:26:22.786Z,3.28
2023-01-06T06:28:51.038Z,3.58
2023-01-06T06:31:25.973Z,3.63
2023-01-06T06:33:55.055Z,3.33
2023-01-06T06:36:23.421Z,3.45
2023-01-06T06:38:53.063Z,2.88
2023-01-06T06:41:22.575Z,4.32
2023-01-06T06:43:51.295Z,2.53
2023-01-06T06:46:21.181Z,2.40
2023-01-06T06:48:49.501Z,2.33
2023-01-06T06:51:19.180Z,1.90
2023-01-06T06:53:47.658Z,1.92
2023-01-06T06:56:17.344Z,2.00
2023-01-06T06:58:45.804Z,1.70
2023-01-06T07:01:15.489Z,1.60
2023-01-06T07:03:45.423Z,1.55
2023-01-06T07:06:15.667Z,1.40
2023-01-06T07:08:47.382Z,1.30
2023-01-06T07:11:17.426Z,1.33
2023-01-06T07:13:45.532Z,1.63
2023-01-06T07:16:25.159Z,1.75
2023-01-06T07:18:54.668Z,1.45
2023-01-06T07:21:22.579Z,1.63
2023-01-06T07:23:50.423Z,1.73
2023-01-06T07:26:18.832Z,1.88
2023-01-06T07:28:46.683Z,1.70
2023-01-06T07:31:14.524Z,1.83
2023-01-06T07:33:42.664Z,1.70
2023-01-06T07:36:11.968Z,1.60
2023-01-06T07:38:39.913Z,2.38
2023-01-06T07:41:07.827Z,1.20
2023-01-06T07:43:35.688Z,1.55
2023-01-06T07:46:06.678Z,1.25
2023-01-06T07:48:34.738Z,0.98
2023-01-06T07:51:04.963Z,1.02
2023-01-06T07:53:34.761Z,0.68
2023-01-06T07:56:02.638Z,1.00
2023-01-06T07:58:30.692Z,0.70
2023-01-06T08:01:07.042Z,0.80
2023-01-06T08:03:35.057Z,0.63
2023-01-06T08:06:08.104Z,0.70
2023-01-06T08:08:38.911Z,0.47
2023-01-06T08:11:06.980Z,0.50
2023-01-06T08:13:38.714Z,0.60
2023-01-06T08:16:07.396Z,0.65
2023-01-06T08:18:35.595Z,0.90
2023-01-06T08:21:04.545Z,0.88
2023-01-06T08:23:34.294Z,0.55
2023-01-06T08:26:09.384Z,0.70
2023-01-06T08:28:37.704Z,1.00
2023-01-06T08:31:09.293Z,0.60
2023-01-06T08:33:37.518Z,0.67
2023-01-06T08:36:08.094Z,0.43
2023-01-06T08:38:39.850Z,0.80
2023-01-06T08:41:09.291Z,0.75
2023-01-06T08:43:38.576Z,0.50
2023-01-06T08:46:08.631Z,0.68
2023-01-06T08:48:36.585Z,0.60
2023-01-06T08:51:05.568Z,0.50
2023-01-06T08:53:34.316Z,0.40
2023-01-06T08:56:07.373Z,0.47
2023-01-06T08:58:38.290Z,0.52
2023-01-06T09:01:06.879Z,0.63
2023-01-06T09:03:35.482Z,0.50
2023-01-06T09:06:03.394Z,0.75
2023-01-06T09:08:31.357Z,0.68
2023-01-06T09:10:59.306Z,0.65
2023-01-06T09:13:27.216Z,1.20
2023-01-06T09:15:59.097Z,0.80
2023-01-06T09:18:28.775Z,1.00
2023-01-06T09:20:56.625Z,0.60
2023-01-06T09:23:24.611Z,1.17
2023-01-06T09:25:52.843Z,0.80
2023-01-06T09:28:23.344Z,0.93
2023-01-06T09:30:51.446Z,1.13
2023-01-06T09:33:20.767Z,1.08
2023-01-06T09:35:51.819Z,0.90
2023-01-06T09:38:21.664Z,1.33
2023-01-06T09:41:00.598Z,1.30
2023-01-06T09:43:41.893Z,1.15
2023-01-06T09:46:12.875Z,2.08
2023-01-06T09:48:47.701Z,1.42
2023-01-06T09:51:20.911Z,0.90
2023-01-06T09:53:53.673Z,1.15
2023-01-06T09:56:25.841Z,1.08
2023-01-06T09:59:05.297Z,1.30
2023-01-06T10:01:39.176Z,1.00
2023-01-06T10:04:18.173Z,1.00
2023-01-06T10:06:52.409Z,0.90
2023-01-06T10:09:25.883Z,1.05
2023-01-06T10:12:03.532Z,1.08
2023-01-06T10:14:45.795Z,1.17
2023-01-06T10:17:34.084Z,0.75
2023-01-06T10:20:18.057Z,0.90
2023-01-06T10:22:53.767Z,0.65
2023-01-06T10:25:23.814Z,0.63
2023-01-06T10:27:54.906Z,1.20
2023-01-06T10:30:30.778Z,0.93
2023-01-06T10:33:02.565Z,0.80
2023-01-06T10:35:33.164Z,0.88
2023-01-06T10:38:05.869Z,0.93
2023-01-06T10:40:37.331Z,1.00
2023-01-06T10:43:07.774Z,0.80
2023-01-06T10:45:39.546Z,0.82
2023-01-06T10:48:12.061Z,1.10
2023-01-06T10:53:10.782Z,1.02
2023-01-06T10:55:42.555Z,0.95
2023-01-06T10:58:24.287Z,0.70
2023-01-06T11:01:01.012Z,0.88
2023-01-06T11:03:34.185Z,0.88
2023-01-06T11:06:11.170Z,1.08
2023-01-06T11:08:40.539Z,1.00
2023-01-06T11:11:26.893Z,0.60
2023-01-06T11:13:58.264Z,0.93
2023-01-06T11:16:28.949Z,1.30
2023-01-06T11:18:58.739Z,1.20
2023-01-06T11:21:39.505Z,0.65
2023-01-06T11:24:17.831Z,0.70
2023-01-06T11:26:47.209Z,0.88
2023-01-06T11:29:27.121Z,0.50
2023-01-06T11:31:55.780Z,0.82
2023-01-06T11:34:25.891Z,1.05
2023-01-06T11:36:55.591Z,0.80
2023-01-06T11:39:28.569Z,0.57
2023-01-06T11:42:02.704Z,0.70
2023-01-06T11:44:35.540Z,0.73
2023-01-06T11:47:06.845Z,0.70
2023-01-06T11:49:40.249Z,0.60
2023-01-06T11:52:22.667Z,0.60
2023-01-06T11:54:59.512Z,0.20
2023-01-06T11:57:36.652Z,0.38
2023-01-06T12:00:33.345Z,0.50
2023-01-06T12:03:09.394Z,0.70
2023-01-06T12:05:44.245Z,0.30
2023-01-06T12:08:19.611Z,1.02
2023-01-06T12:10:52.514Z,0.40
2023-01-06T12:13:20.937Z,0.30
2023-01-06T12:16:02.062Z,0.30
2023-01-06T12:18:33.558Z,0.40
2023-01-06T12:21:03.739Z,0.50
2023-01-06T12:23:35.892Z,0.40
2023-01-06T12:26:09.666Z,0.30
2023-01-06T12:28:40.901Z,0.40
2023-01-06T12:31:14.347Z,0.60
2023-01-06T12:33:49.136Z,0.43
2023-01-06T12:36:24.201Z,0.45
2023-01-06T12:39:02.999Z,0.30
2023-01-06T12:41:41.051Z,0.38
2023-01-06T12:44:17.748Z,0.60
2023-01-06T12:46:55.657Z,0.60
2023-01-06T12:49:32.713Z,0.20
2023-01-06T12:52:05.501Z,0.20
2023-01-06T12:54:36.469Z,0.30
2023-01-06T12:57:18.931Z,0.77
2023-01-06T13:00:04.234Z,0.40
2023-01-06T13:02:48.904Z,0.47
2023-01-06T13:05:29.100Z,0.38
2023-01-06T13:08:06.577Z,0.32
2023-01-06T13:10:40.830Z,0.43
2023-01-06T13:13:47.029Z,0.50
2023-01-06T13:16:21.586Z,0.50
2023-01-06T13:19:01.401Z,0.40
2023-01-06T13:21:36.092Z,0.55
2023-01-06T13:24:18.780Z,0.40
2023-01-06T13:29:50.353Z,0.40
2023-01-06T13:32:40.685Z,0.40
2023-01-06T13:35:28.826Z,0.30
2023-01-06T13:38:06.309Z,0.28
2023-01-06T13:40:39.008Z,0.40
2023-01-06T13:43:15.337Z,0.30
2023-01-06T13:45:47.369Z,0.40
2023-01-06T13:48:19.297Z,0.40
2023-01-06T13:50:48.013Z,0.40
2023-01-06T13:53:19.722Z,0.50
2023-01-06T13:55:48.386Z,0.60
2023-01-06T13:58:40.919Z,0.40
2023-01-06T14:01:10.799Z,0.50
2023-01-06T14:03:49.935Z,0.63
2023-01-06T14:06:47.722Z,0.60
2023-01-06T14:09:19.339Z,0.50
2023-01-06T14:11:52.023Z,0.63
2023-01-06T14:14:27.009Z,0.60
2023-01-06T14:16:55.814Z,1.08
2023-01-06T14:19:26.988Z,1.08
2023-01-06T14:22:16.127Z,0.88
2023-01-06T14:24:52.063Z,0.82
2023-01-06T14:28:01.746Z,0.80
2023-01-06T14:30:33.222Z,0.70
2023-01-06T14:33:23.665Z,0.52
2023-01-06T14:36:04.960Z,0.40
2023-01-06T14:38:37.786Z,0.40
2023-01-06T14:41:10.844Z,0.52
2023-01-06T14:43:45.938Z,0.45
2023-01-06T14:46:25.161Z,0.60
2023-01-06T14:48:57.528Z,0.57
2023-01-06T14:51:26.241Z,1.48
2023-01-06T14:53:59.722Z,0.80
2023-01-06T14:56:30.122Z,0.40
2023-01-06T14:59:12.769Z,0.63
2023-01-06T15:07:15.513Z,0.63
2023-01-06T15:09:43.749Z,0.52
2023-01-06T15:12:25.575Z,0.80
2023-01-06T15:14:54.064Z,0.93
2023-01-06T15:17:28.079Z,0.80
2023-01-06T15:19:56.130Z,0.63
2023-01-06T15:22:29.058Z,0.60
2023-01-06T15:25:00.351Z,0.73
2023-01-06T15:27:34.127Z,0.63
2023-01-06T15:30:02.198Z,0.70
2023-01-06T15:32:32.692Z,0.45
2023-01-06T15:35:00.905Z,1.42
2023-01-06T15:37:34.761Z,0.45
2023-01-06T15:40:08.512Z,0.60
2023-01-06T15:42:37.354Z,0.70
2023-01-06T15:45:07.688Z,0.98
2023-01-06T15:47:50.142Z,0.60
2023-01-06T15:50:22.997Z,0.82
2023-01-06T15:52:54.442Z,1.35
2023-01-06T15:55:26.637Z,1.25
2023-01-06T15:58:02.219Z,1.45
2023-01-06T16:03:25.375Z,1.33
2023-01-06T16:06:11.326Z,1.35
2023-01-06T16:08:40.064Z,1.50
2023-01-06T16:11:45.027Z,1.02
2023-01-06T16:14:37.881Z,0.80
2023-01-06T16:19:40.445Z,0.75
2023-01-06T16:22:31.752Z,0.70
2023-01-06T16:25:02.236Z,0.70
2023-01-06T16:27:30.392Z,0.50
2023-01-06T16:30:26.906Z,0.40
2023-01-06T16:32:56.066Z,0.65
2023-01-06T16:35:27.237Z,0.40
2023-01-06T16:37:58.180Z,0.90
2023-01-06T16:40:28.251Z,0.60
2023-01-06T16:43:00.192Z,0.80
2023-01-06T16:45:33.184Z,0.70
2023-01-06T16:48:01.295Z,0.98
2023-01-06T16:50:34.992Z,0.95
2023-01-06T16:53:12.389Z,0.70
2023-01-06T16:55:43.768Z,0.70
2023-01-06T16:58:20.407Z,0.55
2023-01-06T17:00:52.598Z,0.68
2023-01-06T17:03:22.772Z,1.00
2023-01-06T17:05:52.674Z,0.70
2023-01-06T17:08:26.855Z,0.90
2023-01-06T17:10:54.867Z,0.95
2023-01-06T17:13:39.862Z,1.00
2023-01-06T17:16:16.013Z,0.80
2023-01-06T17:18:51.348Z,0.77
2023-01-06T17:21:24.554Z,0.88
2023-01-06T17:23:55.347Z,0.80
2023-01-06T17:26:24.461Z,0.75
2023-01-06T17:28:57.383Z,1.08
2023-01-06T17:31:31.969Z,0.90
2023-01-06T17:34:08.274Z,1.00
2023-01-06T17:36:40.740Z,1.15
2023-01-06T17:41:50.505Z,1.55
2023-01-06T17:44:20.615Z,2.10
2023-01-06T17:46:48.967Z,3.03
2023-01-06T17:49:34.741Z,2.95
2023-01-06T17:52:18.084Z,2.03
2023-01-06T17:55:11.940Z,1.83
2023-01-06T17:57:41.752Z,1.67
2023-01-06T18:00:29.615Z,1.85
2023-01-06T18:03:02.846Z,1.80
2023-01-06T18:06:04.127Z,1.52
2023-01-06T18:08:35.985Z,1.75
2023-01-06T18:11:30.005Z,1.25
2023-01-06T18:14:15.504Z,1.50
2023-01-06T18:16:46.215Z,1.65
2023-01-06T18:19:35.802Z,1.58
2023-01-06T18:22:10.875Z,1.00
2023-01-06T18:24:41.557Z,1.10
2023-01-06T18:27:17.571Z,1.05
2023-01-06T18:29:46.577Z,0.88
2023-01-06T18:32:24.475Z,0.90
2023-01-06T18:34:53.837Z,0.90
2023-01-06T18:37:25.291Z,0.90
2023-01-06T18:39:58.495Z,1.25
2023-01-06T18:42:31.721Z,1.10
2023-01-06T18:45:18.162Z,0.98
2023-01-06T18:47:49.986Z,0.90
2023-01-06T18:50:26.871Z,0.70
2023-01-06T18:52:59.452Z,1.00
2023-01-06T18:55:35.230Z,1.20
2023-01-06T18:58:09.716Z,1.00
2023-01-06T19:00:41.036Z,1.02
2023-01-06T19:03:37.163Z,1.77
2023-01-06T19:06:41.061Z,1.88
2023-01-06T19:09:25.210Z,1.00
2023-01-06T19:12:00.995Z,1.33
2023-01-06T19:14:33.794Z,1.10
2023-01-06T19:17:01.977Z,1.40
2023-01-06T19:19:38.244Z,1.38
2023-01-06T19:22:19.526Z,1.40
2023-01-06T19:25:00.432Z,1.40
2023-01-06T19:27:36.490Z,1.25
2023-01-06T19:30:37.771Z,1.17
2023-01-06T19:33:31.850Z,1.73
2023-01-06T19:36:32.423Z,1.40
2023-01-06T19:39:02.116Z,1.40
2023-01-06T19:41:33.061Z,1.27
2023-01-06T19:44:15.554Z,1.50
2023-01-06T19:46:47.024Z,1.67
2023-01-06T19:49:18.849Z,1.23
2023-01-06T19:51:49.295Z,1.20
2023-01-06T19:57:29.300Z,1.30
2023-01-06T20:00:00.633Z,1.27
2023-01-06T20:02:31.896Z,1.30
2023-01-06T20:05:00.159Z,1.20
2023-01-06T20:07:28.213Z,1.00
2023-01-06T20:09:56.372Z,1.10
2023-01-06T20:12:26.992Z,1.25
2023-01-06T20:14:54.994Z,1.33
2023-01-06T20:17:25.852Z,0.93
2023-01-06T20:19:53.995Z,1.02
2023-01-06T20:22:22.717Z,0.90
2023-01-06T20:24:50.811Z,1.10
2023-01-06T20:27:20.912Z,1.10
2023-01-06T20:29:49.098Z,1.02
2023-01-06T20:32:17.243Z,1.27
2023-01-06T20:34:51.827Z,1.10
2023-01-06T20:37:19.920Z,1.10
2023-01-06T20:39:48.143Z,1.20
2023-01-06T20:42:16.406Z,1.10
2023-01-06T20:44:46.187Z,1.00
2023-01-06T20:47:14.443Z,1.30
2023-01-06T20:49:44.289Z,1.20
2023-01-06T20:52:13.702Z,1.25
2023-01-06T20:54:43.752Z,1.30
2023-01-06T20:57:11.846Z,1.13
2023-01-06T20:59:40.000Z,1.65
2023-01-06T21:02:10.804Z,1.20
2023-01-06T21:04:38.935Z,1.10
2023-01-06T21:07:09.723Z,1.00
2023-01-06T21:09:39.245Z,1.02
2023-01-06T21:12:08.128Z,1.08
2023-01-06T21:14:36.218Z,0.88
2023-01-06T21:17:07.255Z,0.98
2023-01-06T21:19:35.402Z,1.20
2023-01-06T21:22:09.597Z,0.73
2023-01-06T21:24:39.360Z,1.02
2023-01-06T21:27:09.291Z,1.00
2023-01-06T21:29:38.692Z,1.20
2023-01-06T21:32:06.699Z,0.82
2023-01-06T21:34:34.831Z,1.17
2023-01-06T21:37:02.905Z,1.27
2023-01-06T21:39:32.978Z,1.00
2023-01-06T21:42:20.153Z,1.10
2023-01-06T21:44:50.698Z,1.08
2023-01-06T21:47:19.717Z,1.00
2023-01-06T21:49:50.350Z,1.27
2023-01-06T21:52:18.865Z,0.98
2023-01-06T21:54:49.363Z,1.05
2023-01-06T21:57:18.840Z,1.30
2023-01-06T21:59:47.032Z,1.85
2023-01-06T22:02:18.368Z,1.27
2023-01-06T22:04:51.641Z,1.15
2023-01-06T22:07:23.677Z,1.20
2023-01-06T22:09:52.470Z,1.13
2023-01-06T22:12:22.091Z,1.67
2023-01-06T22:14:51.590Z,1.45
2023-01-06T22:17:20.996Z,1.33
2023-01-06T22:19:51.085Z,1.20
2023-01-06T22:22:21.360Z,1.30
2023-01-06T22:24:50.728Z,1.33
2023-01-06T22:27:18.908Z,1.83
2023-01-06T22:29:50.817Z,1.83
2023-01-06T22:32:19.318Z,1.35
2023-01-06T22:34:48.228Z,1.30
2023-01-06T22:37:16.318Z,1.75
2023-01-06T22:39:46.682Z,1.48
2023-01-06T22:42:14.801Z,1.48
2023-01-06T22:44:42.888Z,2.40
2023-01-06T22:47:12.282Z,2.35
2023-01-06T22:49:40.263Z,2.17
2023-01-06T22:52:10.285Z,1.70
2023-01-06T22:54:38.366Z,1.70
2023-01-06T22:57:06.416Z,1.73
2023-01-06T22:59:34.569Z,1.90
2023-01-06T23:02:02.616Z,2.20
2023-01-06T23:04:32.247Z,1.85
2023-01-06T23:07:00.308Z,1.75
2023-01-06T23:09:31.473Z,1.73
2023-01-06T23:11:59.446Z,2.17
2023-01-06T23:14:32.718Z,2.25
2023-01-06T23:17:02.413Z,1.95
2023-01-06T23:19:32.143Z,1.55
2023-01-06T23:22:00.311Z,1.92
2023-01-06T23:24:31.026Z,1.92
2023-01-06T23:26:58.966Z,1.88
2023-01-06T23:29:26.910Z,1.50
2023-01-06T23:31:54.886Z,1.73
2023-01-06T23:34:22.802Z,1.90
2023-01-06T23:36:52.185Z,1.38
2023-01-06T23:39:21.144Z,1.75
2023-01-06T23:41:49.407Z,1.50
2023-01-06T23:44:21.813Z,1.52
2023-01-06T23:46:52.527Z,1.95
2023-01-06T23:49:24.625Z,1.80
2023-01-06T23:51:54.470Z,1.42
2023-01-06T23:54:22.605Z,1.40
2023-01-06T23:56:59.366Z,1.90
2023-01-06T23:59:30.484Z,1.63
